Time;durP1;ratioP1;P1;durP2;ratioP2;P2;SDS_P1;SDS_P2;PMS_P1;PMS_P2;Temp;Humidity;BMP_temperature;BMP_pressure;BME280_temperature;BME280_humidity;BME280_pressure;Samples;Min_cycle;Max_cycle;Signal;HPM_P1;HPM_P2
2022/03/01 00:01:54;;;;;;;17.15;8.77;;;7.20;99.90;;;;;;5033435;28;20934;-79
2022/03/01 00:04:20;;;;;;;18.02;8.93;;;7.30;99.90;;;;;;5034900;28;20239;-82
2022/03/01 00:06:46;;;;;;;19.20;10.05;;;7.20;99.90;;;;;;5035001;28;20156;-82
2022/03/01 00:09:11;;;;;;;17.50;10.30;;;7.30;99.90;;;;;;5034845;28;20210;-80
2022/03/01 00:11:38;;;;;;;17.50;8.50;;;7.30;99.90;;;;;;5034902;28;20648;-79
2022/03/01 00:14:05;;;;;;;16.45;9.35;;;7.30;99.90;;;;;;5034506;28;20168;-78
2022/03/01 00:16:31;;;;;;;17.85;10.13;;;7.30;99.90;;;;;;5034724;28;20172;-80
2022/03/01 00:18:57;;;;;;;16.63;8.07;;;7.40;99.90;;;;;;5034729;28;20211;-82
2022/03/01 00:21:24;;;;;;;19.65;9.35;;;7.30;99.90;;;;;;5033857;28;20620;-80
2022/03/01 00:23:50;;;;;;;16.75;9.50;;;7.40;99.90;;;;;;5034750;28;20711;-81
2022/03/01 00:26:15;;;;;;;20.50;8.95;;;7.40;99.90;;;;;;5034350;28;20192;-80
2022/03/01 00:28:42;;;;;;;16.55;7.72;;;7.20;99.90;;;;;;5034478;28;20690;-81
2022/03/01 00:31:08;;;;;;;15.00;8.18;;;7.20;99.90;;;;;;5034491;28;20168;-83
2022/03/01 00:33:33;;;;;;;18.17;8.70;;;7.10;99.90;;;;;;5034552;28;20706;-81
2022/03/01 00:35:59;;;;;;;18.13;9.15;;;7.10;99.90;;;;;;5034145;28;20184;-84
2022/03/01 00:38:25;;;;;;;10.75;7.70;;;7.20;99.90;;;;;;5034413;28;20160;-80
2022/03/01 00:40:51;;;;;;;20.02;7.80;;;7.20;99.90;;;;;;5034405;28;20196;-80
2022/03/01 00:43:16;;;;;;;15.15;8.57;;;7.20;99.90;;;;;;5034183;28;20172;-82
2022/03/01 00:45:42;;;;;;;12.15;7.07;;;7.20;99.90;;;;;;5033920;28;20183;-79
2022/03/01 00:48:08;;;;;;;15.50;8.95;;;7.30;99.90;;;;;;5034016;28;20199;-79
2022/03/01 00:50:34;;;;;;;15.50;8.10;;;7.40;99.90;;;;;;5034371;28;20584;-79
2022/03/01 00:53:00;;;;;;;15.60;7.82;;;7.50;99.90;;;;;;5034219;28;20688;-79
2022/03/01 00:55:25;;;;;;;13.25;7.35;;;7.40;99.90;;;;;;5033902;28;20216;-82
2022/03/01 00:57:51;;;;;;;17.90;7.50;;;7.40;99.90;;;;;;5033984;28;20160;-78
2022/03/01 01:00:17;;;;;;;13.75;8.05;;;7.40;99.90;;;;;;5033898;28;20164;-82
2022/03/01 01:02:43;;;;;;;15.23;8.18;;;7.40;99.90;;;;;;5034177;28;20160;-81
2022/03/01 01:05:09;;;;;;;14.13;7.80;;;7.40;99.90;;;;;;5033777;28;20210;-80
2022/03/01 01:07:35;;;;;;;16.75;8.85;;;7.50;99.90;;;;;;5033623;28;20711;-80
2022/03/01 01:10:00;;;;;;;14.73;8.10;;;7.40;99.90;;;;;;5033508;28;20219;-79
2022/03/01 01:12:26;;;;;;;20.33;8.68;;;7.60;99.90;;;;;;5033648;28;20156;-80
2022/03/01 01:14:51;;;;;;;17.33;7.65;;;7.50;99.90;;;;;;5033588;28;20201;-79
2022/03/01 01:17:17;;;;;;;17.20;8.48;;;7.50;99.90;;;;;;5033559;28;20208;-79
2022/03/01 01:19:43;;;;;;;12.95;7.88;;;7.60;99.90;;;;;;5033503;28;20163;-79
2022/03/01 01:24:52;;;;;;;12.15;7.55;;;7.40;99.90;;;;;;5033537;28;20623;-80
2022/03/01 01:27:18;;;;;;;16.67;8.40;;;7.40;99.90;;;;;;5033416;28;20247;-81
2022/03/01 01:29:44;;;;;;;15.48;7.70;;;7.40;99.90;;;;;;5033355;28;20564;-79
2022/03/01 01:32:10;;;;;;;13.95;7.68;;;7.20;99.90;;;;;;5033022;28;20168;-80
2022/03/01 01:34:35;;;;;;;12.02;8.55;;;7.30;99.90;;;;;;5032898;28;20615;-79
2022/03/01 01:37:01;;;;;;;16.48;8.25;;;7.50;99.90;;;;;;5032987;28;20164;-83
2022/03/01 01:39:27;;;;;;;11.32;8.35;;;7.40;99.90;;;;;;5032711;28;20175;-79
2022/03/01 01:41:52;;;;;;;18.88;9.02;;;7.50;99.90;;;;;;5033368;28;20164;-78
2022/03/01 01:44:18;;;;;;;14.85;9.20;;;7.40;99.90;;;;;;5033539;28;20787;-79
2022/03/01 01:46:44;;;;;;;19.80;8.35;;;7.40;99.90;;;;;;5033010;28;20175;-78
2022/03/01 01:49:09;;;;;;;16.92;9.27;;;7.40;99.90;;;;;;5031537;28;20211;-79
2022/03/01 01:51:35;;;;;;;17.60;8.05;;;7.40;99.90;;;;;;5033071;28;20164;-79
2022/03/01 01:54:01;;;;;;;17.40;8.02;;;7.40;99.90;;;;;;5033083;28;20168;-79
2022/03/01 01:56:26;;;;;;;15.50;9.10;;;7.50;99.90;;;;;;5033096;28;20195;-80
2022/03/01 01:58:52;;;;;;;12.73;8.32;;;7.50;99.90;;;;;;5031789;28;20661;-79
2022/03/01 02:01:18;;;;;;;22.02;9.07;;;7.50;99.90;;;;;;5031496;28;20172;-82
2022/03/01 02:03:44;;;;;;;16.27;9.13;;;7.60;99.90;;;;;;5031599;28;20175;-80
2022/03/01 02:06:09;;;;;;;20.67;8.68;;;7.60;99.90;;;;;;5032676;28;20184;-85
2022/03/01 02:08:35;;;;;;;18.95;8.82;;;7.50;99.90;;;;;;5032686;28;20203;-81
2022/03/01 02:11:02;;;;;;;18.02;8.52;;;7.70;99.90;;;;;;5033032;28;20259;-82
2022/03/01 02:13:28;;;;;;;16.63;8.43;;;7.50;99.90;;;;;;5032593;28;20164;-79
2022/03/01 02:15:55;;;;;;;14.32;9.02;;;7.60;99.90;;;;;;5032747;28;20254;-82
2022/03/01 02:18:21;;;;;;;20.25;8.50;;;7.60;99.90;;;;;;5032747;28;20179;-81
2022/03/01 02:20:47;;;;;;;18.40;8.13;;;7.70;99.90;;;;;;5032722;28;20191;-84
2022/03/01 02:23:13;;;;;;;20.08;9.52;;;7.70;99.90;;;;;;5032731;28;20237;-83
2022/03/01 02:25:39;;;;;;;21.15;8.32;;;7.70;99.90;;;;;;5032897;28;20648;-78
2022/03/01 02:28:05;;;;;;;16.65;8.68;;;7.60;99.90;;;;;;5032653;28;20203;-79
2022/03/01 02:30:32;;;;;;;17.02;9.02;;;7.60;99.90;;;;;;5032638;28;20229;-79
2022/03/01 02:32:58;;;;;;;14.40;7.85;;;7.60;99.90;;;;;;5032527;28;20270;-81
2022/03/01 02:35:24;;;;;;;16.70;9.30;;;7.40;99.90;;;;;;5032506;28;20187;-80
2022/03/01 02:37:50;;;;;;;15.77;8.13;;;7.40;99.90;;;;;;5032916;28;20180;-82
2022/03/01 02:40:16;;;;;;;12.18;7.38;;;7.40;99.90;;;;;;5032570;28;20164;-82
2022/03/01 02:42:46;;;;;;;16.15;8.13;;;7.40;99.90;;;;;;5032567;28;20200;-82
2022/03/01 02:45:14;;;;;;;14.75;8.38;;;7.40;99.90;;;;;;5033566;28;20203;-78
2022/03/01 02:47:40;;;;;;;16.38;7.75;;;7.40;99.90;;;;;;5035183;28;20259;-81
2022/03/01 02:50:08;;;;;;;16.08;8.57;;;7.40;99.90;;;;;;5036198;28;20334;-84
2022/03/01 02:52:34;;;;;;;24.10;8.48;;;7.30;99.90;;;;;;5036554;28;20155;-82
2022/03/01 02:55:00;;;;;;;18.50;7.93;;;7.30;99.90;;;;;;5036265;28;20636;-79
2022/03/01 02:57:25;;;;;;;16.27;8.80;;;7.40;99.90;;;;;;5035911;28;20178;-81
2022/03/01 02:59:52;;;;;;;14.45;8.45;;;7.40;99.90;;;;;;5035944;28;20171;-79
2022/03/01 03:02:18;;;;;;;11.82;7.68;;;7.30;99.90;;;;;;5036098;28;20179;-82
2022/03/01 03:04:44;;;;;;;17.13;7.90;;;7.30;99.90;;;;;;5036483;28;20184;-82
2022/03/01 03:07:10;;;;;;;14.90;7.75;;;7.40;99.90;;;;;;5035033;28;20231;-81
2022/03/01 03:09:35;;;;;;;14.85;9.27;;;7.40;99.90;;;;;;5036079;28;20203;-81
2022/03/01 03:12:01;;;;;;;14.68;8.32;;;7.30;99.90;;;;;;5036011;28;20168;-83
2022/03/01 03:14:27;;;;;;;10.05;7.05;;;7.40;99.90;;;;;;5035792;28;20588;-80
2022/03/01 03:16:52;;;;;;;12.35;7.47;;;7.50;99.90;;;;;;5035916;28;20698;-81
2022/03/01 03:19:19;;;;;;;10.90;6.97;;;7.50;99.90;;;;;;5035949;28;20176;-83
2022/03/01 03:21:45;;;;;;;12.82;8.38;;;7.60;99.90;;;;;;5035878;28;20171;-79
2022/03/01 03:24:11;;;;;;;13.88;7.70;;;7.70;99.90;;;;;;5035807;28;20168;-82
2022/03/01 03:26:38;;;;;;;18.58;9.15;;;7.60;99.90;;;;;;5035881;28;20163;-84
2022/03/01 03:29:04;;;;;;;18.33;8.15;;;7.60;99.90;;;;;;5035700;28;20210;-84
2022/03/01 03:31:30;;;;;;;13.45;7.93;;;7.70;99.90;;;;;;5035343;28;20241;-78
2022/03/01 03:33:56;;;;;;;13.45;7.30;;;7.70;99.90;;;;;;5034297;28;20215;-81
2022/03/01 03:36:21;;;;;;;14.30;7.82;;;7.70;99.90;;;;;;5035045;28;20618;-80
2022/03/01 03:38:47;;;;;;;15.38;6.88;;;7.80;99.90;;;;;;5035365;28;20168;-79
2022/03/01 03:41:12;;;;;;;14.20;6.93;;;7.60;99.90;;;;;;5035616;28;20242;-82
2022/03/01 03:43:38;;;;;;;16.88;7.55;;;7.80;99.90;;;;;;5035201;28;20616;-80
2022/03/01 03:46:04;;;;;;;10.77;7.15;;;7.70;99.90;;;;;;5035010;28;20216;-83
2022/03/01 03:48:30;;;;;;;16.23;7.63;;;7.70;99.90;;;;;;5035146;28;20203;-81
2022/03/01 03:50:55;;;;;;;13.20;6.82;;;7.70;99.90;;;;;;5034974;28;20176;-80
2022/03/01 03:53:21;;;;;;;14.73;7.07;;;7.70;99.90;;;;;;5034885;28;20163;-82
2022/03/01 03:55:47;;;;;;;10.27;7.05;;;7.70;99.90;;;;;;5035101;28;20195;-80
2022/03/01 03:58:12;;;;;;;11.75;8.05;;;7.60;99.90;;;;;;5035162;28;20171;-81
2022/03/01 04:00:38;;;;;;;12.82;7.20;;;7.70;99.90;;;;;;5035153;28;20176;-78
2022/03/01 04:03:04;;;;;;;8.90;7.07;;;7.80;99.90;;;;;;5035373;28;20185;-80
2022/03/01 04:05:29;;;;;;;12.43;7.07;;;7.80;99.90;;;;;;5034911;28;20656;-84
2022/03/01 04:07:55;;;;;;;17.20;7.57;;;7.90;99.90;;;;;;5034956;28;20533;-82
2022/03/01 04:10:21;;;;;;;10.27;7.40;;;7.90;99.90;;;;;;5035013;28;20179;-81
2022/03/01 04:12:47;;;;;;;9.85;7.07;;;7.90;99.90;;;;;;5034911;28;20168;-81
2022/03/01 04:15:13;;;;;;;12.52;7.40;;;8.00;99.90;;;;;;5034698;28;20507;-80
2022/03/01 04:17:40;;;;;;;12.20;8.13;;;7.90;99.90;;;;;;5034653;28;20277;-80
2022/03/01 04:20:06;;;;;;;12.32;7.72;;;7.80;99.90;;;;;;5033455;28;20660;-81
2022/03/01 04:22:31;;;;;;;13.15;7.22;;;7.90;99.90;;;;;;5034677;28;20168;-83
2022/03/01 04:24:58;;;;;;;8.82;7.25;;;7.80;99.90;;;;;;5034709;28;20195;-83
2022/03/01 04:27:23;;;;;;;10.00;6.60;;;7.80;99.90;;;;;;5034825;28;20251;-81
2022/03/01 04:29:49;;;;;;;19.73;7.10;;;7.80;99.90;;;;;;5034767;28;20322;-81
2022/03/01 04:32:15;;;;;;;9.32;6.63;;;7.70;99.90;;;;;;5034267;28;20175;-79
2022/03/01 04:34:41;;;;;;;11.85;7.22;;;7.70;99.90;;;;;;5034501;28;20521;-79
2022/03/01 04:37:08;;;;;;;9.43;6.28;;;7.60;99.90;;;;;;5034675;28;20495;-84
2022/03/01 04:39:33;;;;;;;17.05;6.97;;;7.50;99.90;;;;;;5034622;28;20266;-81
2022/03/01 04:41:59;;;;;;;8.60;6.60;;;7.60;99.90;;;;;;5033945;28;20191;-81
2022/03/01 04:44:25;;;;;;;8.98;6.53;;;7.60;99.90;;;;;;5034210;28;20199;-81
2022/03/01 04:46:50;;;;;;;11.70;6.22;;;7.60;99.90;;;;;;5034363;28;20192;-79
2022/03/01 04:49:16;;;;;;;9.00;5.90;;;7.60;99.90;;;;;;5034024;28;20290;-82
2022/03/01 04:51:41;;;;;;;12.02;7.28;;;7.70;99.90;;;;;;5034386;28;20222;-81
2022/03/01 04:54:07;;;;;;;8.88;6.93;;;7.70;99.90;;;;;;5034613;28;20592;-80
2022/03/01 04:56:33;;;;;;;10.90;6.80;;;7.70;99.90;;;;;;5034221;28;20183;-80
2022/03/01 04:58:59;;;;;;;11.73;6.50;;;7.80;99.90;;;;;;5033805;28;20175;-78
2022/03/01 05:01:24;;;;;;;15.73;6.78;;;7.60;99.90;;;;;;5033089;28;20183;-79
2022/03/01 05:03:50;;;;;;;11.95;6.22;;;7.50;99.90;;;;;;5033755;28;20172;-82
2022/03/01 05:06:16;;;;;;;13.13;7.15;;;7.30;99.90;;;;;;5033942;28;20187;-85
2022/03/01 05:08:41;;;;;;;14.05;7.43;;;7.40;99.90;;;;;;5033261;28;20203;-82
2022/03/01 05:11:07;;;;;;;10.80;7.15;;;7.50;99.90;;;;;;5033642;28;20195;-82
2022/03/01 05:13:33;;;;;;;9.10;6.97;;;7.70;99.90;;;;;;5033556;28;20204;-81
2022/03/01 05:15:58;;;;;;;9.32;7.22;;;7.70;99.90;;;;;;5033142;28;20195;-80
2022/03/01 05:18:24;;;;;;;14.75;6.63;;;7.50;99.90;;;;;;5033352;28;20175;-79
2022/03/01 05:20:51;;;;;;;11.85;6.90;;;7.60;99.90;;;;;;5033474;28;20167;-80
2022/03/01 05:23:17;;;;;;;10.68;7.63;;;7.60;99.90;;;;;;5033138;28;20187;-81
2022/03/01 05:25:43;;;;;;;11.15;7.28;;;7.60;99.90;;;;;;5033182;28;20281;-78
2022/03/01 05:28:09;;;;;;;15.38;7.32;;;7.70;99.90;;;;;;5033285;28;20167;-81
2022/03/01 05:30:35;;;;;;;12.30;6.95;;;7.70;99.90;;;;;;5033348;28;20182;-86
2022/03/01 05:33:01;;;;;;;12.90;8.38;;;7.70;99.90;;;;;;5033994;28;20246;-82
2022/03/01 05:35:28;;;;;;;13.30;7.50;;;7.70;99.90;;;;;;5033063;28;20238;-81
2022/03/01 05:37:55;;;;;;;10.85;6.28;;;7.70;99.90;;;;;;5032272;28;20183;-85
2022/03/01 05:40:23;;;;;;;9.63;6.88;;;7.60;99.90;;;;;;5033045;28;20358;-81
2022/03/01 05:42:49;;;;;;;7.95;7.05;;;7.60;99.90;;;;;;5033263;28;20176;-81
2022/03/01 05:45:15;;;;;;;11.20;7.93;;;7.50;99.90;;;;;;5033086;28;20541;-79
2022/03/01 05:47:43;;;;;;;17.95;9.05;;;7.60;99.90;;;;;;5031911;28;20164;-82
2022/03/01 05:50:09;;;;;;;12.18;8.75;;;7.60;99.90;;;;;;5032702;28;20298;-81
2022/03/01 05:52:36;;;;;;;10.55;7.25;;;7.60;99.90;;;;;;5033076;28;20175;-81
2022/03/01 05:55:03;;;;;;;10.73;7.13;;;7.60;99.90;;;;;;5032827;28;20192;-80
2022/03/01 05:57:29;;;;;;;14.45;7.75;;;7.60;99.90;;;;;;5048373;28;20191;-82
2022/03/01 05:59:56;;;;;;;10.18;8.18;;;7.70;99.90;;;;;;5032938;28;20784;-80
2022/03/01 06:02:22;;;;;;;13.48;7.75;;;7.70;99.90;;;;;;5032845;28;20217;-84
2022/03/01 06:04:47;;;;;;;15.50;8.18;;;7.60;99.90;;;;;;5031773;28;20191;-85
2022/03/01 06:07:13;;;;;;;14.20;7.43;;;7.60;99.90;;;;;;5032936;28;20625;-81
2022/03/01 06:09:38;;;;;;;11.13;7.18;;;7.50;99.90;;;;;;5032923;28;20256;-83
2022/03/01 06:12:04;;;;;;;12.30;7.22;;;7.50;99.90;;;;;;5032773;28;20163;-79
2022/03/01 06:14:30;;;;;;;17.98;7.10;;;7.40;99.90;;;;;;5032572;28;20219;-84
2022/03/01 06:16:56;;;;;;;12.43;7.25;;;7.30;99.90;;;;;;5032495;28;20184;-81
2022/03/01 06:19:21;;;;;;;9.50;7.47;;;7.10;99.90;;;;;;5032634;28;20183;-78
2022/03/01 06:21:47;;;;;;;8.82;6.63;;;7.10;99.90;;;;;;5036772;28;20230;-78
2022/03/01 06:24:13;;;;;;;14.23;7.65;;;7.20;99.90;;;;;;5036971;28;20171;-78
2022/03/01 06:26:39;;;;;;;15.13;7.72;;;7.10;99.90;;;;;;5036539;28;20187;-78
2022/03/01 06:29:05;;;;;;;11.95;8.05;;;7.10;99.90;;;;;;5036279;28;20231;-78
2022/03/01 06:31:31;;;;;;;17.75;7.95;;;7.30;99.90;;;;;;5036225;28;20170;-78
2022/03/01 06:33:56;;;;;;;10.07;6.85;;;7.30;99.90;;;;;;5035288;28;20243;-80
2022/03/01 06:36:23;;;;;;;10.52;6.82;;;7.30;99.90;;;;;;5036466;28;20574;-81
2022/03/01 06:38:49;;;;;;;17.58;9.02;;;7.30;99.90;;;;;;5034873;28;20580;-79
2022/03/01 06:41:14;;;;;;;11.70;7.07;;;7.30;99.90;;;;;;5036145;28;20256;-78
2022/03/01 06:43:40;;;;;;;7.75;6.82;;;7.40;99.90;;;;;;5036204;28;20191;-79
2022/03/01 06:46:05;;;;;;;11.07;8.00;;;7.50;99.90;;;;;;5036519;28;20250;-78
2022/03/01 06:48:31;;;;;;;11.95;7.32;;;7.40;99.90;;;;;;5036318;28;20294;-78
2022/03/01 06:50:57;;;;;;;9.75;7.38;;;7.50;99.90;;;;;;5036441;28;20167;-79
2022/03/01 06:53:22;;;;;;;16.83;7.63;;;7.60;99.90;;;;;;5035989;28;20164;-80
2022/03/01 06:55:48;;;;;;;12.90;7.18;;;7.70;99.90;;;;;;5036203;28;20205;-78
2022/03/01 06:58:14;;;;;;;15.68;8.23;;;7.50;99.90;;;;;;5035864;28;20171;-80
2022/03/01 07:00:39;;;;;;;17.58;7.05;;;7.60;99.90;;;;;;5035931;28;20251;-78
2022/03/01 07:03:05;;;;;;;13.30;8.02;;;7.40;99.90;;;;;;5036010;28;20179;-80
2022/03/01 07:05:31;;;;;;;9.90;7.00;;;7.30;99.90;;;;;;5036232;28;20218;-79
2022/03/01 07:07:57;;;;;;;10.20;7.80;;;7.40;99.90;;;;;;5035889;28;20535;-78
2022/03/01 07:10:23;;;;;;;17.50;7.50;;;7.60;99.90;;;;;;5035804;28;20226;-78
2022/03/01 07:12:49;;;;;;;15.43;7.97;;;7.80;99.90;;;;;;5035709;28;20244;-79
2022/03/01 07:15:15;;;;;;;11.07;7.00;;;7.70;99.90;;;;;;5035582;28;20622;-79
2022/03/01 07:17:40;;;;;;;7.38;5.93;;;7.80;99.90;;;;;;5034442;28;20266;-78
2022/03/01 07:20:07;;;;;;;11.38;7.57;;;7.90;99.90;;;;;;5034520;28;20656;-79
2022/03/01 07:22:33;;;;;;;24.38;7.07;;;7.70;99.90;;;;;;5034381;28;20172;-78
2022/03/01 07:24:59;;;;;;;15.43;8.52;;;7.50;99.90;;;;;;5035318;28;20191;-80
2022/03/01 07:27:24;;;;;;;9.05;7.00;;;7.40;99.90;;;;;;5033996;28;20504;-82
2022/03/01 07:29:50;;;;;;;14.52;8.63;;;7.60;99.90;;;;;;5035298;28;20239;-79
2022/03/01 07:32:16;;;;;;;11.52;7.63;;;7.80;99.90;;;;;;5033310;28;20168;-82
2022/03/01 07:34:42;;;;;;;13.73;7.93;;;7.90;99.90;;;;;;5033796;28;20203;-82
2022/03/01 07:37:08;;;;;;;10.25;7.90;;;7.80;99.90;;;;;;5034797;28;20167;-79
2022/03/01 07:39:34;;;;;;;11.68;7.85;;;7.70;99.90;;;;;;5035300;28;20534;-78
2022/03/01 07:42:00;;;;;;;11.63;7.63;;;7.70;99.90;;;;;;5035098;28;20160;-78
2022/03/01 07:44:25;;;;;;;13.82;7.90;;;7.90;99.90;;;;;;5034916;28;20668;-78
2022/03/01 07:46:51;;;;;;;16.25;7.63;;;8.00;99.90;;;;;;5035031;28;20164;-78
2022/03/01 07:49:17;;;;;;;13.95;9.02;;;8.20;99.90;;;;;;5033712;28;20783;-78
2022/03/01 07:51:43;;;;;;;16.60;8.73;;;8.30;99.90;;;;;;5035057;28;20168;-79
2022/03/01 07:54:08;;;;;;;17.00;8.73;;;8.50;99.90;;;;;;5034470;28;20171;-79
2022/03/01 07:56:34;;;;;;;18.55;8.15;;;8.70;99.90;;;;;;5034893;28;20235;-80
2022/03/01 07:59:00;;;;;;;13.48;8.55;;;8.90;99.90;;;;;;5034985;28;20163;-79
2022/03/01 08:01:26;;;;;;;14.80;8.43;;;9.00;99.90;;;;;;5034743;28;20172;-78
2022/03/01 08:03:51;;;;;;;15.65;8.90;;;9.10;99.90;;;;;;5034853;28;20541;-78
2022/03/01 08:06:17;;;;;;;21.77;9.43;;;8.90;99.90;;;;;;5032796;28;20226;-78
2022/03/01 08:08:43;;;;;;;22.75;9.85;;;8.90;99.90;;;;;;5034347;28;20203;-78
2022/03/01 08:11:09;;;;;;;15.48;8.77;;;9.10;99.90;;;;;;5034220;28;20218;-79
2022/03/01 08:13:35;;;;;;;16.00;9.95;;;9.20;99.90;;;;;;5034223;28;20515;-78
2022/03/01 08:16:02;;;;;;;19.50;9.07;;;9.20;99.90;;;;;;5033851;28;20180;-78
2022/03/01 08:18:28;;;;;;;18.30;9.52;;;9.40;99.90;;;;;;5032840;28;20194;-79
2022/03/01 08:20:54;;;;;;;19.08;9.57;;;9.30;99.90;;;;;;5034254;28;20160;-78
2022/03/01 08:23:19;;;;;;;16.70;9.07;;;9.60;99.90;;;;;;5034272;28;20249;-79
2022/03/01 08:25:45;;;;;;;14.88;9.05;;;9.80;99.90;;;;;;5034160;28;20205;-79
2022/03/01 08:28:12;;;;;;;21.10;10.15;;;9.60;99.90;;;;;;5034179;28;20658;-79
2022/03/01 08:30:38;;;;;;;14.25;9.18;;;9.60;99.90;;;;;;5032687;28;20271;-79
2022/03/01 08:33:04;;;;;;;13.73;9.40;;;9.60;99.90;;;;;;5033204;28;20246;-79
2022/03/01 08:35:32;;;;;;;15.00;9.07;;;9.80;99.90;;;;;;5032942;28;20210;-79
2022/03/01 08:38:02;;;;;;;22.77;10.15;;;10.00;99.90;;;;;;5034379;28;20703;-81
2022/03/01 08:40:29;;;;;;;17.52;9.90;;;10.10;99.90;;;;;;5049395;28;20175;-78
2022/03/01 08:42:55;;;;;;;19.13;9.85;;;9.70;99.90;;;;;;5033669;28;20171;-79
2022/03/01 08:45:21;;;;;;;18.10;9.68;;;9.30;99.90;;;;;;5034335;28;20206;-79
2022/03/01 08:47:47;;;;;;;14.38;9.25;;;9.40;99.90;;;;;;5034000;28;20473;-79
2022/03/01 08:50:12;;;;;;;21.02;9.82;;;9.30;99.90;;;;;;5033638;28;20238;-79
2022/03/01 08:52:39;;;;;;;20.83;10.57;;;9.50;99.90;;;;;;5033985;28;20167;-79
2022/03/01 08:55:06;;;;;;;28.48;9.20;;;9.90;99.90;;;;;;5033606;28;20211;-79
2022/03/01 08:57:32;;;;;;;17.52;9.18;;;10.10;99.90;;;;;;5033498;28;20172;-79
2022/03/01 08:59:58;;;;;;;18.42;9.88;;;9.90;99.90;;;;;;5033413;28;20532;-79
2022/03/01 09:02:23;;;;;;;17.98;9.35;;;10.30;99.90;;;;;;5033279;28;20168;-81
2022/03/01 09:04:49;;;;;;;14.23;7.88;;;10.50;99.90;;;;;;5033176;28;20664;-79
2022/03/01 09:07:14;;;;;;;22.08;9.85;;;10.80;99.90;;;;;;5033177;28;20179;-80
2022/03/01 09:09:40;;;;;;;19.27;8.35;;;10.90;99.90;;;;;;5033485;28;20208;-80
2022/03/01 09:12:06;;;;;;;23.40;11.07;;;10.90;99.90;;;;;;5033414;28;20680;-80
2022/03/01 09:14:32;;;;;;;12.75;8.98;;;10.70;99.90;;;;;;5033335;28;20202;-82
2022/03/01 09:16:57;;;;;;;15.65;9.45;;;10.50;99.90;;;;;;5033078;28;20168;-79
2022/03/01 09:19:23;;;;;;;15.05;9.07;;;10.60;99.90;;;;;;5033100;28;20238;-79
2022/03/01 09:21:48;;;;;;;23.33;9.77;;;10.50;99.90;;;;;;5033299;28;20172;-82
2022/03/01 09:24:14;;;;;;;21.77;10.05;;;10.40;99.90;;;;;;5032750;28;20171;-79
2022/03/01 09:26:40;;;;;;;15.43;9.68;;;10.50;99.90;;;;;;5033172;28;20206;-82
2022/03/01 09:29:05;;;;;;;15.40;10.77;;;10.50;99.90;;;;;;5033129;28;20208;-81
2022/03/01 09:31:31;;;;;;;20.17;9.57;;;10.50;99.90;;;;;;5033187;28;20164;-79
2022/03/01 09:33:58;;;;;;;29.33;9.52;;;10.40;99.90;;;;;;5033191;28;20218;-80
2022/03/01 09:36:24;;;;;;;18.48;9.80;;;10.20;99.90;;;;;;5031883;28;20196;-82
2022/03/01 09:38:49;;;;;;;11.95;8.98;;;10.30;99.90;;;;;;5032683;28;20565;-79
2022/03/01 09:41:16;;;;;;;20.95;9.20;;;10.30;99.90;;;;;;5032672;28;20168;-81
2022/03/01 09:43:42;;;;;;;18.67;10.02;;;10.60;99.90;;;;;;5031638;28;20163;-80
2022/03/01 09:46:09;;;;;;;13.05;9.60;;;10.60;99.90;;;;;;5032454;28;20195;-80
2022/03/01 09:48:36;;;;;;;17.83;9.75;;;10.80;99.90;;;;;;5032644;28;20199;-82
2022/03/01 09:51:04;;;;;;;16.13;9.15;;;10.70;99.90;;;;;;5031422;28;20265;-80
2022/03/01 09:53:29;;;;;;;13.95;9.07;;;10.40;99.90;;;;;;5032620;28;20179;-79
2022/03/01 09:55:56;;;;;;;18.13;10.30;;;10.40;99.90;;;;;;5033548;28;20526;-80
2022/03/01 09:58:22;;;;;;;17.13;10.70;;;10.40;99.90;;;;;;5033627;28;20172;-79
2022/03/01 10:00:48;;;;;;;22.48;9.15;;;10.70;99.90;;;;;;5034629;28;20168;-81
2022/03/01 10:03:16;;;;;;;30.85;10.85;;;11.00;99.90;;;;;;5032944;28;20614;-80
2022/03/01 10:05:43;;;;;;;20.90;9.38;;;11.20;99.90;;;;;;5031065;28;20270;-77
2022/03/01 10:08:12;;;;;;;24.15;10.18;;;11.30;99.90;;;;;;5032599;28;20265;-81
2022/03/01 10:10:44;;;;;;;16.55;9.95;;;11.50;99.90;;;;;;5032951;28;20204;-78
2022/03/01 10:13:12;;;;;;;19.55;10.25;;;11.00;99.90;;;;;;5030996;28;20643;-79
2022/03/01 10:15:37;;;;;;;26.20;10.52;;;10.90;99.90;;;;;;5032249;28;20195;-78
2022/03/01 10:18:15;;;;;;;23.50;11.32;;;11.00;99.90;;;;;;5032465;28;20180;-79
2022/03/01 10:20:44;;;;;;;17.05;10.00;;;11.00;99.90;;;;;;5032601;28;20181;-78
2022/03/01 10:23:10;;;;;;;18.15;9.45;;;11.00;99.90;;;;;;5032322;28;20168;-79
2022/03/01 10:25:36;;;;;;;26.58;11.15;;;11.20;99.90;;;;;;5032212;28;20680;-78
2022/03/01 10:28:03;;;;;;;28.27;11.40;;;11.20;99.90;;;;;;5032354;28;20654;-78
2022/03/01 10:30:32;;;;;;;24.20;11.13;;;11.20;99.90;;;;;;5032257;28;20205;-76
2022/03/01 10:33:15;;;;;;;26.33;10.25;;;11.40;99.90;;;;;;5030774;28;20231;-77
2022/03/01 10:35:43;;;;;;;20.60;9.77;;;11.70;99.90;;;;;;5032327;28;20254;-77
2022/03/01 10:38:10;;;;;;;24.05;11.48;;;11.80;99.90;;;;;;5032352;28;20175;-77
2022/03/01 10:40:38;;;;;;;17.60;9.35;;;11.80;99.90;;;;;;5032425;28;20172;-77
2022/03/01 10:43:05;;;;;;;16.08;10.23;;;11.90;99.90;;;;;;5031992;28;20170;-79
2022/03/01 10:45:44;;;;;;;17.50;10.48;;;11.90;99.90;;;;;;5031984;28;20191;-79
2022/03/01 10:48:12;;;;;;;18.65;10.77;;;12.00;99.90;;;;;;5032042;28;20210;-80
2022/03/01 10:50:39;;;;;;;24.10;9.93;;;11.90;99.90;;;;;;5032109;28;20179;-77
2022/03/01 10:53:06;;;;;;;20.95;10.23;;;11.50;99.90;;;;;;5032168;28;20644;-82
2022/03/01 10:55:34;;;;;;;18.70;9.60;;;11.10;99.90;;;;;;5030695;28;20204;-79
2022/03/01 10:58:12;;;;;;;21.05;11.18;;;11.10;99.90;;;;;;5030629;28;20164;-78
2022/03/01 11:00:39;;;;;;;16.52;9.52;;;11.20;99.90;;;;;;5032283;28;20206;-78
2022/03/01 11:03:06;;;;;;;21.27;11.30;;;11.30;99.90;;;;;;5030904;28;20266;-78
2022/03/01 11:05:32;;;;;;;24.08;10.05;;;11.10;99.90;;;;;;5034560;28;20180;-77
2022/03/01 11:08:04;;;;;;;17.63;10.27;;;11.20;99.90;;;;;;5038801;28;20168;-78
2022/03/01 11:10:33;;;;;;;19.20;10.40;;;11.30;99.90;;;;;;5037498;28;20214;-78
2022/03/01 11:13:01;;;;;;;22.70;10.80;;;11.30;99.90;;;;;;5040213;28;20624;-78
2022/03/01 11:15:47;;;;;;;18.98;9.70;;;11.20;99.90;;;;;;5042469;28;20307;-79
2022/03/01 11:18:36;;;;;;;25.23;11.82;;;11.40;99.90;;;;;;5043082;28;20294;-76
2022/03/01 11:21:03;;;;;;;18.70;10.27;;;11.40;99.90;;;;;;5036956;28;20175;-79
2022/03/01 11:23:30;;;;;;;17.92;9.63;;;11.60;99.90;;;;;;5037474;28;20183;-77
2022/03/01 11:26:08;;;;;;;20.27;10.80;;;11.30;99.90;;;;;;5037736;28;20203;-79
2022/03/01 11:28:40;;;;;;;37.20;11.65;;;11.30;99.90;;;;;;5037618;28;20253;-77
2022/03/01 11:31:22;;;;;;;21.33;11.23;;;11.70;99.90;;;;;;5042407;28;20198;-79
2022/03/01 11:34:10;;;;;;;26.70;10.95;;;12.10;99.90;;;;;;5043968;28;20730;-77
2022/03/01 11:36:36;;;;;;;19.38;10.48;;;12.40;99.90;;;;;;5044633;28;20200;-76
2022/03/01 11:39:13;;;;;;;20.75;10.60;;;12.60;99.90;;;;;;5042940;28;20172;-79
2022/03/01 11:41:50;;;;;;;19.95;11.07;;;12.30;99.90;;;;;;5043628;28;20164;-76
2022/03/01 11:44:22;;;;;;;17.63;10.48;;;12.30;99.90;;;;;;5042948;28;20248;-76
2022/03/01 11:46:49;;;;;;;16.20;10.90;;;12.50;99.90;;;;;;5040845;28;20168;-78
2022/03/01 11:49:17;;;;;;;16.05;10.27;;;12.40;99.90;;;;;;5045891;28;20200;-77
2022/03/01 11:51:53;;;;;;;23.05;11.48;;;12.60;99.90;;;;;;5046003;28;20229;-77
2022/03/01 11:54:23;;;;;;;21.13;11.18;;;12.60;99.90;;;;;;5046446;28;20245;-78
2022/03/01 11:56:52;;;;;;;24.52;12.18;;;12.90;99.90;;;;;;5048564;28;20168;-80
2022/03/01 11:59:18;;;;;;;17.25;11.68;;;12.90;99.90;;;;;;5043704;28;20168;-79
2022/03/01 12:01:45;;;;;;;31.25;12.55;;;12.80;99.90;;;;;;5034819;28;20233;-81
2022/03/01 12:04:11;;;;;;;20.83;11.35;;;13.00;99.90;;;;;;5033401;28;20164;-79
2022/03/01 12:06:39;;;;;;;16.83;10.80;;;13.20;99.90;;;;;;5034588;28;20195;-79
2022/03/01 12:09:07;;;;;;;20.00;11.32;;;13.20;99.90;;;;;;5034710;28;20521;-79
2022/03/01 12:11:37;;;;;;;17.02;11.82;;;13.30;99.90;;;;;;5034696;28;20255;-80
2022/03/01 12:14:28;;;;;;;22.20;12.50;;;13.40;99.90;;;;;;5034453;28;20180;-81
2022/03/01 12:16:53;;;;;;;20.00;12.13;;;13.50;99.90;;;;;;5033726;28;20168;-79
2022/03/01 12:19:21;;;;;;;20.77;12.40;;;13.90;99.90;;;;;;5034178;28;20703;-77
2022/03/01 12:21:55;;;;;;;18.50;11.45;;;14.00;99.90;;;;;;5036489;28;20581;-79
2022/03/01 12:24:22;;;;;;;18.98;11.10;;;13.80;99.90;;;;;;5049532;23;20219;-80
2022/03/01 12:26:56;;;;;;;21.73;11.45;;;13.80;99.90;;;;;;5033379;28;20176;-77
2022/03/01 12:29:28;;;;;;;15.70;11.38;;;13.20;99.90;;;;;;5032989;28;20211;-79
2022/03/01 12:31:59;;;;;;;16.35;11.57;;;13.20;99.90;;;;;;5034451;28;20168;-79
2022/03/01 12:34:29;;;;;;;16.38;11.15;;;13.50;99.90;;;;;;5033060;28;20546;-78
2022/03/01 12:36:57;;;;;;;23.10;11.77;;;13.30;99.90;;;;;;5033246;28;20214;-77
2022/03/01 12:39:24;;;;;;;18.63;11.07;;;13.20;99.90;;;;;;5037303;28;20640;-77
2022/03/01 12:41:50;;;;;;;20.65;12.00;;;13.30;99.90;;;;;;5037063;28;20172;-80
2022/03/01 12:44:19;;;;;;;18.80;11.60;;;13.40;99.90;;;;;;5036074;28;20202;-80